createdAt,value
2018-06-15T00:00:54.183Z,11.50
2018-06-15T00:05:53.947Z,11.50
2018-06-15T00:08:22.666Z,11.50
2018-06-15T00:10:51.356Z,11.50
2018-06-15T00:13:19.992Z,11.50
2018-06-15T00:15:48.680Z,11.50
2018-06-15T00:18:17.339Z,11.50
2018-06-15T00:20:46.046Z,11.50
2018-06-15T00:23:14.736Z,11.50
2018-06-15T00:25:43.422Z,11.40
2018-06-15T00:28:12.176Z,11.40
2018-06-15T00:30:40.957Z,11.40
2018-06-15T00:33:09.813Z,11.40
2018-06-15T00:35:38.539Z,11.40
2018-06-15T00:38:07.346Z,11.30
2018-06-15T00:40:36.049Z,11.30
2018-06-15T00:45:33.287Z,11.30
2018-06-15T00:48:02.076Z,11.30
2018-06-15T00:50:30.812Z,11.30
2018-06-15T00:52:59.543Z,11.30
2018-06-15T00:55:28.231Z,11.30
2018-06-15T00:57:56.890Z,11.30
2018-06-15T01:00:25.597Z,11.30
2018-06-15T01:02:54.308Z,11.30
2018-06-15T01:05:22.982Z,11.30
2018-06-15T01:07:51.810Z,11.30
2018-06-15T01:10:20.546Z,11.30
2018-06-15T01:12:49.257Z,11.30
2018-06-15T01:15:17.953Z,11.30
2018-06-15T01:17:46.665Z,11.30
2018-06-15T01:20:15.395Z,11.30
2018-06-15T01:22:44.114Z,11.40
2018-06-15T01:25:12.824Z,11.30
2018-06-15T01:27:41.550Z,11.30
2018-06-15T01:30:10.381Z,11.30
2018-06-15T01:32:39.187Z,11.20
2018-06-15T01:35:07.904Z,11.30
2018-06-15T01:37:36.719Z,11.30
2018-06-15T01:40:05.538Z,11.20
2018-06-15T01:42:34.278Z,11.20
2018-06-15T01:45:03.173Z,11.20
2018-06-15T01:47:31.919Z,11.20
2018-06-15T01:50:00.628Z,11.20
2018-06-15T01:52:29.600Z,11.20
2018-06-15T01:54:58.275Z,11.20
2018-06-15T01:57:26.921Z,11.20
2018-06-15T01:59:55.593Z,11.20
2018-06-15T02:02:24.268Z,11.20
2018-06-15T02:04:53.000Z,11.20
2018-06-15T02:07:21.710Z,11.30
2018-06-15T02:09:50.585Z,11.20
2018-06-15T02:12:19.286Z,11.20
2018-06-15T02:14:47.955Z,11.10
2018-06-15T02:17:17.292Z,11.10
2018-06-15T02:19:45.998Z,11.10
2018-06-15T02:22:14.747Z,11.00
2018-06-15T02:24:43.413Z,11.00
2018-06-15T02:27:12.103Z,10.90
2018-06-15T02:29:40.815Z,10.90
2018-06-15T02:32:09.587Z,10.90
2018-06-15T02:34:38.354Z,10.80
2018-06-15T02:39:35.593Z,10.80
2018-06-15T02:42:04.432Z,10.70
2018-06-15T02:44:33.324Z,10.80
2018-06-15T02:47:02.090Z,10.70
2018-06-15T02:49:30.812Z,10.60
2018-06-15T02:51:59.559Z,10.60
2018-06-15T02:54:28.227Z,10.60
2018-06-15T02:56:56.960Z,10.60
2018-06-15T02:59:25.724Z,10.50
2018-06-15T03:01:54.403Z,10.50
2018-06-15T03:04:23.087Z,10.50
2018-06-15T03:06:51.762Z,10.50
2018-06-15T03:09:20.431Z,10.50
2018-06-15T03:11:49.092Z,10.50
2018-06-15T03:14:17.786Z,10.50
2018-06-15T03:16:46.527Z,10.50
2018-06-15T03:19:15.233Z,10.50
2018-06-15T03:21:44.325Z,10.50
2018-06-15T03:24:13.060Z,10.50
2018-06-15T03:26:41.797Z,10.50
2018-06-15T03:29:10.674Z,10.50
2018-06-15T03:31:39.375Z,10.50
2018-06-15T03:34:08.133Z,10.40
2018-06-15T03:36:36.896Z,10.50
2018-06-15T03:39:08.167Z,10.50
2018-06-15T03:41:37.094Z,10.50
2018-06-15T03:44:05.871Z,10.50
2018-06-15T03:46:35.051Z,10.60
2018-06-15T03:51:32.335Z,10.60
2018-06-15T03:54:01.250Z,10.70
2018-06-15T03:56:30.067Z,10.70
2018-06-15T03:58:58.757Z,10.80
2018-06-15T04:01:27.504Z,10.80
2018-06-15T04:03:56.378Z,10.80
2018-06-15T04:06:25.084Z,10.90
2018-06-15T04:08:53.756Z,10.90
2018-06-15T04:11:22.411Z,11.00
2018-06-15T04:13:51.174Z,11.10
2018-06-15T04:16:19.892Z,11.10
2018-06-15T04:18:48.576Z,11.20
2018-06-15T04:21:17.283Z,11.30
2018-06-15T04:23:45.991Z,11.40
2018-06-15T04:26:14.722Z,11.50
2018-06-15T04:28:43.446Z,11.70
2018-06-15T04:31:12.139Z,11.80
2018-06-15T04:33:40.867Z,11.90
2018-06-15T04:36:09.907Z,12.10
2018-06-15T04:38:38.707Z,12.20
2018-06-15T04:41:07.418Z,12.40
2018-06-15T04:43:36.161Z,12.60
2018-06-15T04:46:05.117Z,12.80
2018-06-15T04:48:33.830Z,13.10
2018-06-15T04:51:02.670Z,13.30
2018-06-15T04:53:31.405Z,13.50
2018-06-15T04:56:00.092Z,13.80
2018-06-15T04:58:28.796Z,14.00
2018-06-15T05:00:57.496Z,14.30
2018-06-15T05:03:26.166Z,14.40
2018-06-15T05:05:54.831Z,14.50
2018-06-15T05:08:23.654Z,14.70
2018-06-15T05:10:52.327Z,14.80
2018-06-15T05:13:21.009Z,15.00
2018-06-15T05:15:49.639Z,15.00
2018-06-15T05:18:18.345Z,15.10
2018-06-15T05:20:47.020Z,15.20
2018-06-15T05:23:15.723Z,15.40
2018-06-15T05:25:44.501Z,15.50
2018-06-15T05:28:13.143Z,15.70
2018-06-15T05:30:41.967Z,15.90
2018-06-15T05:33:10.805Z,16.10
2018-06-15T05:35:39.494Z,16.10
2018-06-15T05:38:08.185Z,15.90
2018-06-15T05:40:36.946Z,15.90
2018-06-15T05:43:05.727Z,15.90
2018-06-15T05:45:34.522Z,15.70
2018-06-15T05:48:03.211Z,15.70
2018-06-15T05:50:32.080Z,15.70
2018-06-15T05:53:00.908Z,15.80
2018-06-15T05:55:29.590Z,16.20
2018-06-15T05:57:58.275Z,16.40
2018-06-15T06:00:26.953Z,16.70
2018-06-15T06:02:55.857Z,16.70
2018-06-15T06:05:24.484Z,17.00
2018-06-15T06:07:53.165Z,17.30
2018-06-15T06:10:22.127Z,17.70
2018-06-15T06:12:50.778Z,18.10
2018-06-15T06:15:19.614Z,18.40
2018-06-15T06:17:48.563Z,18.80
2018-06-15T06:20:17.226Z,19.40
2018-06-15T06:22:45.895Z,20.10
2018-06-15T06:25:14.583Z,20.60
2018-06-15T06:27:43.252Z,21.10
2018-06-15T06:30:11.994Z,21.10
2018-06-15T06:32:40.679Z,21.00
2018-06-15T06:35:09.387Z,21.00
2018-06-15T06:37:38.012Z,21.10
2018-06-15T06:40:06.918Z,21.50
2018-06-15T06:42:35.618Z,22.60
2018-06-15T06:45:04.280Z,23.00
2018-06-15T06:47:32.994Z,23.70
2018-06-15T06:50:01.624Z,24.20
2018-06-15T06:52:30.295Z,24.40
2018-06-15T06:54:58.910Z,24.50
2018-06-15T06:57:27.638Z,24.90
2018-06-15T06:59:56.284Z,25.80
2018-06-15T07:02:24.936Z,25.80
2018-06-15T07:04:53.611Z,25.90
2018-06-15T07:07:22.273Z,26.40
2018-06-15T07:09:50.922Z,26.00
2018-06-15T07:12:19.640Z,26.20
2018-06-15T07:14:52.637Z,26.00
2018-06-15T07:17:21.414Z,25.60
2018-06-15T07:19:50.085Z,25.80
2018-06-15T07:22:18.878Z,26.00
2018-06-15T07:24:47.489Z,25.90
2018-06-15T07:27:16.125Z,25.40
2018-06-15T07:29:44.728Z,25.30
2018-06-15T07:32:13.398Z,25.00
2018-06-15T07:34:42.033Z,25.10
2018-06-15T07:37:10.704Z,25.60
2018-06-15T07:39:39.349Z,25.90
2018-06-15T07:42:08.022Z,26.40
2018-06-15T07:44:36.766Z,27.40
2018-06-15T07:47:05.442Z,28.20
2018-06-15T07:49:34.290Z,27.80
2018-06-15T07:52:03.032Z,27.90
2018-06-15T07:54:31.804Z,28.20
2018-06-15T07:57:00.544Z,28.30
2018-06-15T07:59:29.262Z,29.20
2018-06-15T08:01:57.910Z,29.20
2018-06-15T08:04:26.584Z,29.60
2018-06-15T08:06:55.339Z,29.00
2018-06-15T08:09:24.023Z,28.20
2018-06-15T08:14:21.003Z,27.30
2018-06-15T08:16:49.651Z,27.60
2018-06-15T08:19:18.294Z,28.30
2018-06-15T08:21:46.982Z,28.10
2018-06-15T08:24:15.587Z,28.30
2018-06-15T08:26:44.231Z,29.00
2018-06-15T08:29:12.848Z,29.60
2018-06-15T08:31:41.509Z,29.10
2018-06-15T08:34:10.160Z,29.10
2018-06-15T08:36:38.830Z,29.70
2018-06-15T08:39:09.810Z,29.70
2018-06-15T08:41:38.472Z,29.90
2018-06-15T08:44:07.157Z,29.80
2018-06-15T08:46:35.868Z,30.20
2018-06-15T08:49:04.604Z,30.30
2018-06-15T08:51:33.338Z,29.80
2018-06-15T08:54:01.996Z,29.60
2018-06-15T08:56:30.886Z,29.90
2018-06-15T08:58:59.561Z,29.60
2018-06-15T09:01:28.178Z,30.10
2018-06-15T09:03:56.845Z,30.80
2018-06-15T09:06:25.494Z,30.20
2018-06-15T09:08:54.110Z,30.80
2018-06-15T09:11:22.771Z,30.70
2018-06-15T09:13:51.402Z,30.40
2018-06-15T09:16:20.160Z,30.00
2018-06-15T09:18:48.773Z,30.40
2018-06-15T09:21:17.438Z,30.40
2018-06-15T09:23:46.068Z,30.10
2018-06-15T09:26:14.709Z,30.40
2018-06-15T09:28:43.309Z,30.50
2018-06-15T09:31:11.978Z,30.40
2018-06-15T09:33:40.614Z,30.00
2018-06-15T09:38:37.503Z,29.60
2018-06-15T09:43:34.500Z,29.00
2018-06-15T09:46:03.169Z,29.70
2018-06-15T09:48:31.841Z,30.30
2018-06-15T09:51:00.454Z,30.30
2018-06-15T09:53:29.078Z,30.70
2018-06-15T09:55:57.749Z,30.90
2018-06-15T09:58:26.991Z,31.20
2018-06-15T10:01:00.861Z,31.20
2018-06-15T10:03:29.558Z,30.80
2018-06-15T10:06:00.210Z,31.00
2018-06-15T10:08:28.987Z,31.20
2018-06-15T10:10:57.926Z,31.40
2018-06-15T10:13:26.577Z,31.50
2018-06-15T10:15:55.414Z,31.80
2018-06-15T10:18:24.052Z,31.50
2018-06-15T10:20:52.710Z,31.20
2018-06-15T10:23:21.702Z,31.30
2018-06-15T10:25:50.307Z,31.90
2018-06-15T10:28:18.934Z,31.20
2018-06-15T10:30:47.530Z,31.40
2018-06-15T10:33:16.133Z,30.70
2018-06-15T10:35:44.788Z,30.30
2018-06-15T10:38:13.430Z,30.40
2018-06-15T10:40:42.447Z,30.50
2018-06-15T10:43:11.153Z,30.00
2018-06-15T10:45:39.813Z,29.40
2018-06-15T10:48:08.500Z,28.50
2018-06-15T10:50:37.141Z,27.90
2018-06-15T10:53:05.837Z,27.30
2018-06-15T10:55:34.798Z,27.20
2018-06-15T10:58:03.476Z,27.20
2018-06-15T11:00:32.106Z,27.60
2018-06-15T11:03:00.992Z,27.70
2018-06-15T11:05:29.627Z,27.70
2018-06-15T11:07:58.231Z,27.60
2018-06-15T11:10:26.851Z,28.00
2018-06-15T11:12:55.463Z,28.40
2018-06-15T11:15:24.105Z,28.50
2018-06-15T11:17:52.777Z,28.80
2018-06-15T11:20:21.381Z,29.20
2018-06-15T11:22:50.375Z,29.40
2018-06-15T11:25:18.978Z,29.00
2018-06-15T11:27:47.577Z,29.10
2018-06-15T11:30:16.206Z,29.00
2018-06-15T11:32:44.822Z,28.90
2018-06-15T11:35:13.423Z,28.80
2018-06-15T11:37:42.034Z,28.70
2018-06-15T11:40:10.675Z,28.60
2018-06-15T11:42:39.307Z,28.70
2018-06-15T11:45:07.990Z,28.60
2018-06-15T11:47:36.654Z,28.10
2018-06-15T11:50:05.730Z,28.30
2018-06-15T11:55:02.819Z,28.00
2018-06-15T11:57:31.915Z,27.80
2018-06-15T12:00:00.607Z,27.80
2018-06-15T12:02:29.228Z,27.80
2018-06-15T12:04:57.878Z,27.60
2018-06-15T12:07:26.550Z,27.30
2018-06-15T12:09:55.160Z,27.10
2018-06-15T12:12:23.810Z,27.00
2018-06-15T12:14:52.386Z,26.70
2018-06-15T12:17:21.475Z,26.70
2018-06-15T12:19:50.090Z,26.70
2018-06-15T12:22:18.832Z,26.50
2018-06-15T12:24:47.432Z,26.30
2018-06-15T12:27:16.118Z,26.10
2018-06-15T12:29:44.887Z,25.80
2018-06-15T12:32:13.812Z,25.70
2018-06-15T12:34:42.788Z,25.40
2018-06-15T12:37:11.830Z,25.20
2018-06-15T12:39:40.588Z,25.10
2018-06-15T12:42:09.353Z,25.00
2018-06-15T12:44:38.268Z,24.90
2018-06-15T12:47:06.951Z,24.80
2018-06-15T12:49:36.025Z,24.60
2018-06-15T12:52:04.783Z,24.50
2018-06-15T12:54:33.803Z,24.50
2018-06-15T12:57:02.889Z,24.60
2018-06-15T12:59:31.618Z,24.60
2018-06-15T13:02:00.311Z,24.70
2018-06-15T13:04:28.962Z,24.70
2018-06-15T13:06:57.674Z,24.70
2018-06-15T13:09:26.360Z,24.70
2018-06-15T13:11:55.179Z,24.60
2018-06-15T13:14:23.863Z,24.60
2018-06-15T13:16:52.954Z,24.60
2018-06-15T13:19:21.566Z,24.40
2018-06-15T13:21:50.206Z,24.40
2018-06-15T13:24:18.851Z,24.40
2018-06-15T13:26:48.395Z,24.50
2018-06-15T13:29:17.087Z,24.50
2018-06-15T13:31:45.726Z,24.40
2018-06-15T13:34:14.389Z,24.50
2018-06-15T13:36:43.168Z,24.50
2018-06-15T13:39:13.397Z,24.30
2018-06-15T13:41:42.101Z,24.20
2018-06-15T13:44:10.802Z,24.20
2018-06-15T13:46:39.559Z,24.30
2018-06-15T13:49:08.272Z,24.20
2018-06-15T13:51:37.264Z,24.10
2018-06-15T13:54:06.072Z,24.00
2018-06-15T13:56:34.808Z,24.00
2018-06-15T13:59:03.667Z,24.20
2018-06-15T14:01:32.369Z,24.10
2018-06-15T14:04:01.134Z,24.10
2018-06-15T14:06:29.792Z,24.10
2018-06-15T14:08:58.476Z,24.00
2018-06-15T14:11:27.241Z,23.90
2018-06-15T14:13:55.907Z,24.00
2018-06-15T14:16:24.917Z,24.00
2018-06-15T14:18:53.628Z,24.00
2018-06-15T14:21:22.295Z,24.00
2018-06-15T14:23:50.930Z,24.10
2018-06-15T14:26:19.573Z,24.10
2018-06-15T14:28:48.353Z,24.10
2018-06-15T14:31:17.067Z,24.10
2018-06-15T14:36:14.103Z,24.00
2018-06-15T14:38:42.771Z,24.00
2018-06-15T14:41:11.494Z,24.10
2018-06-15T14:43:40.160Z,24.20
2018-06-15T14:46:08.905Z,24.10
2018-06-15T14:48:37.565Z,24.20
2018-06-15T14:51:06.268Z,24.20
2018-06-15T14:53:35.025Z,24.20
2018-06-15T14:56:04.463Z,24.20
2018-06-15T14:58:33.315Z,24.20
2018-06-15T15:01:01.994Z,24.10
2018-06-15T15:03:30.647Z,24.20
2018-06-15T15:05:59.326Z,24.10
2018-06-15T15:08:28.109Z,24.10
2018-06-15T15:10:56.734Z,24.10
2018-06-15T15:13:25.402Z,24.00
2018-06-15T15:15:54.053Z,23.90
2018-06-15T15:18:22.719Z,23.90
2018-06-15T15:20:51.361Z,23.90
2018-06-15T15:23:20.274Z,23.90
2018-06-15T15:25:48.922Z,23.70
2018-06-15T15:28:17.579Z,23.80
2018-06-15T15:30:46.239Z,23.80
2018-06-15T15:33:14.881Z,23.80
2018-06-15T15:35:43.547Z,23.80
2018-06-15T15:38:12.318Z,23.80
2018-06-15T15:40:41.040Z,23.80
2018-06-15T15:43:09.831Z,23.80
2018-06-15T15:45:38.680Z,23.80
2018-06-15T15:48:07.535Z,23.90
2018-06-15T15:50:36.265Z,23.80
2018-06-15T15:53:05.040Z,23.80
2018-06-15T15:55:33.795Z,23.90
2018-06-15T15:58:02.506Z,23.80
2018-06-15T16:00:31.174Z,23.70
2018-06-15T16:02:59.799Z,23.70
2018-06-15T16:05:28.422Z,23.70
2018-06-15T16:07:57.079Z,23.50
2018-06-15T16:10:25.746Z,23.60
2018-06-15T16:12:54.394Z,23.60
2018-06-15T16:15:23.126Z,23.70
2018-06-15T16:17:51.753Z,23.70
2018-06-15T16:20:20.423Z,23.80
2018-06-15T16:22:49.117Z,23.80
2018-06-15T16:25:17.834Z,23.80
2018-06-15T16:27:47.091Z,23.90
2018-06-15T16:30:15.982Z,23.90
2018-06-15T16:32:44.747Z,23.80
2018-06-15T16:35:13.526Z,23.80
2018-06-15T16:37:42.192Z,23.70
2018-06-15T16:40:10.858Z,23.50
2018-06-15T16:42:39.579Z,23.50
2018-06-15T16:45:08.434Z,23.50
2018-06-15T16:47:37.464Z,23.40
2018-06-15T16:52:34.892Z,23.30
2018-06-15T16:55:03.602Z,23.20
2018-06-15T16:57:32.289Z,23.20
2018-06-15T17:00:00.956Z,23.10
2018-06-15T17:02:29.679Z,23.10
2018-06-15T17:04:58.346Z,22.90
2018-06-15T17:07:26.993Z,22.80
2018-06-15T17:09:56.405Z,22.70
2018-06-15T17:12:25.106Z,22.70
2018-06-15T17:14:53.771Z,22.60
2018-06-15T17:17:25.594Z,22.50
2018-06-15T17:19:54.203Z,22.40
2018-06-15T17:22:22.886Z,22.30
2018-06-15T17:24:51.496Z,22.30
2018-06-15T17:27:20.138Z,22.20
2018-06-15T17:29:48.954Z,22.30
2018-06-15T17:32:18.044Z,22.30
2018-06-15T17:34:46.686Z,22.20
2018-06-15T17:37:15.388Z,22.20
2018-06-15T17:39:44.608Z,22.10
2018-06-15T17:42:13.238Z,22.10
2018-06-15T17:44:41.977Z,22.10
2018-06-15T17:47:10.939Z,22.10
2018-06-15T17:49:41.477Z,22.10
2018-06-15T17:52:11.228Z,22.10
2018-06-15T17:54:39.863Z,22.10
2018-06-15T17:57:08.544Z,22.00
2018-06-15T17:59:37.393Z,22.00
2018-06-15T18:02:06.172Z,22.00
2018-06-15T18:04:35.052Z,22.00
2018-06-15T18:07:03.982Z,21.90
2018-06-15T18:09:33.066Z,21.80
2018-06-15T18:12:01.773Z,21.80
2018-06-15T18:14:30.386Z,21.80
2018-06-15T18:16:59.140Z,21.80
2018-06-15T18:19:27.810Z,21.70
2018-06-15T18:21:56.468Z,21.60
2018-06-15T18:24:25.114Z,21.60
2018-06-15T18:26:53.777Z,21.50
2018-06-15T18:29:22.387Z,21.50
2018-06-15T18:31:51.073Z,21.40
2018-06-15T18:34:19.684Z,21.40
2018-06-15T18:36:48.407Z,21.30
2018-06-15T18:39:17.034Z,21.20
2018-06-15T18:41:45.665Z,21.10
2018-06-15T18:44:14.356Z,21.00
2018-06-15T18:46:43.033Z,20.90
2018-06-15T18:49:11.746Z,20.90
2018-06-15T18:51:40.432Z,20.80
2018-06-15T18:54:09.419Z,20.70
2018-06-15T18:56:38.293Z,20.70
2018-06-15T18:59:07.438Z,20.60
2018-06-15T19:01:36.686Z,20.50
2018-06-15T19:04:05.807Z,20.40
2018-06-15T19:06:34.500Z,20.30
2018-06-15T19:11:31.599Z,20.20
2018-06-15T19:14:00.263Z,20.10
2018-06-15T19:16:28.986Z,19.90
2018-06-15T19:18:57.626Z,19.80
2018-06-15T19:21:26.344Z,19.80
2018-06-15T19:23:55.079Z,19.70
2018-06-15T19:26:25.575Z,19.60
2018-06-15T19:28:54.425Z,19.50
2018-06-15T19:31:23.105Z,19.50
2018-06-15T19:33:51.743Z,19.40
2018-06-15T19:36:20.475Z,19.30
2018-06-15T19:38:49.160Z,19.30
2018-06-15T19:41:17.790Z,19.20
2018-06-15T19:43:46.415Z,19.20
2018-06-15T19:46:15.204Z,19.30
2018-06-15T19:48:43.882Z,19.20
2018-06-15T19:51:12.546Z,19.20
2018-06-15T19:53:41.242Z,19.20
2018-06-15T19:56:09.995Z,19.20
2018-06-15T19:58:38.699Z,19.00
2018-06-15T20:01:07.398Z,19.00
2018-06-15T20:03:36.090Z,18.90
2018-06-15T20:06:04.907Z,18.80
2018-06-15T20:08:35.094Z,18.80
2018-06-15T20:11:03.899Z,18.70
2018-06-15T20:13:32.525Z,18.70
2018-06-15T20:16:01.147Z,18.60
2018-06-15T20:18:29.893Z,18.50
2018-06-15T20:20:58.495Z,18.50
2018-06-15T20:23:27.206Z,18.50
2018-06-15T20:25:55.825Z,18.50
2018-06-15T20:28:24.458Z,18.50
2018-06-15T20:30:53.133Z,18.50
2018-06-15T20:33:21.744Z,18.50
2018-06-15T20:35:50.334Z,18.50
2018-06-15T20:38:18.951Z,18.50
2018-06-15T20:40:47.670Z,18.40
2018-06-15T20:43:16.367Z,18.50
2018-06-15T20:45:44.986Z,18.40
2018-06-15T20:48:13.671Z,18.40
2018-06-15T20:50:42.384Z,18.30
2018-06-15T20:53:11.140Z,18.30
2018-06-15T20:55:40.870Z,18.30
2018-06-15T20:58:10.199Z,18.30
2018-06-15T21:00:39.373Z,18.30
2018-06-15T21:03:08.219Z,18.20
2018-06-15T21:05:37.102Z,18.20
2018-06-15T21:08:06.086Z,18.20
2018-06-15T21:10:35.493Z,18.20
2018-06-15T21:15:33.314Z,18.20
2018-06-15T21:18:02.119Z,18.20
2018-06-15T21:20:30.814Z,18.10
2018-06-15T21:23:00.138Z,18.10
2018-06-15T21:25:28.921Z,18.10
2018-06-15T21:27:57.806Z,18.10
2018-06-15T21:30:26.515Z,18.10
2018-06-15T21:32:55.219Z,18.10
2018-06-15T21:35:24.020Z,18.10
2018-06-15T21:37:52.687Z,18.10
2018-06-15T21:40:21.396Z,18.10
2018-06-15T21:42:50.147Z,18.10
2018-06-15T21:45:18.887Z,18.10
2018-06-15T21:47:47.679Z,18.10
2018-06-15T21:50:33.485Z,18.00
2018-06-15T21:53:02.239Z,18.00
2018-06-15T21:55:31.025Z,18.00
2018-06-15T21:57:59.707Z,18.00
2018-06-15T22:00:28.392Z,18.00
2018-06-15T22:02:57.071Z,18.00
2018-06-15T22:05:25.750Z,18.00
2018-06-15T22:07:54.432Z,17.90
2018-06-15T22:10:23.151Z,17.90
2018-06-15T22:12:51.839Z,17.80
2018-06-15T22:15:20.560Z,17.80
2018-06-15T22:17:49.293Z,17.80
2018-06-15T22:20:17.998Z,17.80
2018-06-15T22:22:46.665Z,17.80
2018-06-15T22:25:15.351Z,17.80
2018-06-15T22:27:44.029Z,17.80
2018-06-15T22:30:12.755Z,17.80
2018-06-15T22:32:41.492Z,17.70
2018-06-15T22:35:10.190Z,17.70
2018-06-15T22:37:38.967Z,17.70
2018-06-15T22:40:07.759Z,17.70
2018-06-15T22:42:36.575Z,17.70
2018-06-15T22:45:05.687Z,17.80
2018-06-15T22:47:34.467Z,17.70
2018-06-15T22:50:03.253Z,17.70
2018-06-15T22:52:31.940Z,17.70
2018-06-15T22:55:00.623Z,17.70
2018-06-15T22:57:29.311Z,17.70
2018-06-15T22:59:58.005Z,17.70
2018-06-15T23:02:26.681Z,17.60
2018-06-15T23:05:06.194Z,17.70
2018-06-15T23:07:34.985Z,17.70
2018-06-15T23:10:03.784Z,17.60
2018-06-15T23:12:32.547Z,17.60
2018-06-15T23:15:01.253Z,17.60
2018-06-15T23:17:29.955Z,17.60
2018-06-15T23:19:58.725Z,17.60
2018-06-15T23:22:27.372Z,17.60
2018-06-15T23:24:56.062Z,17.60
2018-06-15T23:27:24.754Z,17.50
2018-06-15T23:29:53.414Z,17.40
2018-06-15T23:32:22.115Z,17.40
2018-06-15T23:34:51.040Z,17.40
2018-06-15T23:37:19.795Z,17.40
2018-06-15T23:39:48.429Z,17.40
2018-06-15T23:42:17.097Z,17.40
2018-06-15T23:44:45.886Z,17.40
2018-06-15T23:47:14.570Z,17.40
2018-06-15T23:49:43.390Z,17.40
2018-06-15T23:52:12.078Z,17.40
2018-06-15T23:54:40.803Z,17.40
2018-06-15T23:57:09.651Z,17.40
2018-06-15T23:59:38.460Z,17.40
